»·PEaware :: N1128 KSMF-KPDX

N1128 :: KSMF-KPDX

FLIGHT INFORMATION

Flight Status: Arrived
Operator: Privately registered:
United States
More flights under this callsign
Pilot: Siddique N. (20419)
Aircraft: Unknown
(BT7)
More flights by this aircraft type
Origin: KSMF Sacramento Intl
United States
Destination: KPDX Portland Intl
United States
More flights between these airports :: More routes between these airports
Route: +RBL MACHU TMBRS2
File this flight plan on PilotEdge
Remarks:
Altitude:
(Current/Filed)
36,000ft
Speed:
(Current/Filed)
400kts
Departed: 19-Sep-20 09:02 AM
Arrived: 19-Sep-20 10:06 AM
Distance/Time
Traveled:
416nm/1:04
Distance/Time
To Go:
Arrived

Flight Plot

Page will automatically refresh every two minutes.

Flight plan parsing failed; only flown route is shown


Map Options




Map Legend


Flown Route
Filed Route
Departure Airport
Arrival Airport
Navaid (VOR, NDB)
Fix

Horizontal Profiles

Position Reports

Time Latitude Longitude Heading Altitude Ground
Speed
19-Sep-20 08:34 38.695114 -121.596316 90 27ft 0kts
19-Sep-20 08:35 38.695114 -121.596316 90 27ft 0kts
19-Sep-20 08:36 38.695114 -121.596316 90 27ft 0kts
19-Sep-20 08:37 38.695114 -121.596316 90 27ft 0kts
19-Sep-20 08:38 38.695114 -121.596316 90 27ft 0kts
19-Sep-20 08:39 38.695114 -121.596316 90 27ft 0kts
19-Sep-20 08:40 38.695114 -121.596316 90 27ft 0kts
19-Sep-20 08:41 38.695114 -121.596316 90 27ft 0kts
19-Sep-20 08:42 38.695114 -121.596316 90 27ft 0kts
19-Sep-20 08:43 38.695114 -121.596316 90 27ft 0kts
19-Sep-20 08:44 38.695114 -121.596316 90 27ft 0kts
19-Sep-20 08:45 38.695114 -121.596316 90 27ft 0kts
19-Sep-20 08:46 38.695114 -121.596316 90 27ft 0kts
19-Sep-20 08:47 38.695114 -121.596316 90 27ft 0kts
19-Sep-20 08:48 38.695114 -121.596316 90 27ft 0kts
19-Sep-20 08:49 38.695114 -121.596316 90 27ft 0kts
19-Sep-20 08:50 38.695114 -121.596316 90 27ft 0kts
19-Sep-20 08:51 38.695114 -121.596316 90 27ft 0kts
19-Sep-20 08:52 38.695114 -121.596316 90 27ft 0kts
19-Sep-20 08:53 38.695114 -121.596316 90 27ft 0kts
19-Sep-20 08:54 38.695114 -121.596316 90 27ft 0kts
19-Sep-20 08:55 38.695114 -121.596316 90 27ft 0kts
19-Sep-20 08:56 38.695114 -121.596316 90 27ft 0kts
19-Sep-20 08:57 38.696152 -121.598660 358 27ft 27kts
19-Sep-20 08:59 38.707290 -121.599442 273 27ft 0kts
19-Sep-20 08:59 38.707320 -121.599948 274 27ft 9kts
19-Sep-20 09:00 38.706849 -121.601071 184 27ft 0kts
19-Sep-20 09:01 38.662214 -121.602674 182 1012ft 182kts
19-Sep-20 09:02 38.610354 -121.607987 182 4349ft 240kts
19-Sep-20 09:03 38.567039 -121.653336 290 7460ft 233kts
19-Sep-20 09:04 38.632372 -121.663621 13 11692ft 306kts
19-Sep-20 09:05 38.705595 -121.688721 344 15778ft 269kts
19-Sep-20 09:06 38.776459 -121.704338 346 18972ft 288kts
19-Sep-20 09:07 38.869538 -121.723145 348 23300ft 394kts
19-Sep-20 09:08 38.995339 -121.752965 344 27497ft 521kts
19-Sep-20 09:09 39.147197 -121.810415 340 31516ft 587kts
19-Sep-20 09:10 39.301478 -121.871559 340 35508ft 574kts
19-Sep-20 09:11 39.459514 -121.932071 340 35861ft 611kts
19-Sep-20 09:12 39.624278 -122.004576 338 35862ft 628kts
19-Sep-20 09:13 39.789688 -122.077070 339 35859ft 628kts
19-Sep-20 09:14 39.955111 -122.149842 339 35832ft 628kts
19-Sep-20 09:15 40.119842 -122.222524 339 35831ft 627kts
19-Sep-20 09:16 40.288899 -122.278784 350 35815ft 631kts
19-Sep-20 09:17 40.462189 -122.312766 349 35803ft 630kts
19-Sep-20 09:18 40.634900 -122.346852 349 35803ft 629kts
19-Sep-20 09:19 40.807315 -122.380991 347 35801ft 627kts
19-Sep-20 09:20 40.978633 -122.422317 347 35913ft 626kts
19-Sep-20 09:21 41.149157 -122.463278 347 35991ft 625kts
19-Sep-20 09:22 41.320352 -122.504187 347 35991ft 624kts
19-Sep-20 09:23 41.490786 -122.544758 347 35913ft 624kts
19-Sep-20 09:24 41.662468 -122.570221 359 35909ft 628kts
19-Sep-20 09:25 41.836580 -122.566566 357 35910ft 626kts
19-Sep-20 09:26 42.011083 -122.566213 357 35910ft 633kts
19-Sep-20 09:27 42.185253 -122.565513 357 35909ft 618kts
19-Sep-20 09:28 42.355732 -122.568066 356 35911ft 614kts
19-Sep-20 09:29 42.526138 -122.570600 357 35910ft 613kts
19-Sep-20 09:30 42.696500 -122.569954 358 35909ft 613kts
19-Sep-20 09:31 42.866433 -122.569866 356 35908ft 611kts
19-Sep-20 09:32 43.035920 -122.574420 357 35948ft 610kts
19-Sep-20 09:33 43.205028 -122.575652 357 35964ft 610kts
19-Sep-20 09:34 43.374199 -122.576571 357 35964ft 609kts
19-Sep-20 09:35 43.543171 -122.577176 357 35963ft 609kts
19-Sep-20 09:36 43.710463 -122.577309 357 35956ft 565kts
19-Sep-20 09:37 43.855271 -122.593659 343 34603ft 487kts
19-Sep-20 09:38 43.979379 -122.641895 340 31317ft 447kts
19-Sep-20 09:39 44.096565 -122.696835 336 26383ft 446kts
19-Sep-20 09:40 44.214898 -122.743206 0 23993ft 435kts
19-Sep-20 09:41 44.332281 -122.724116 1 23569ft 427kts
19-Sep-20 09:42 44.451750 -122.706830 1 21276ft 437kts
19-Sep-20 09:43 44.567979 -122.690953 0 18325ft 402kts
19-Sep-20 09:44 44.675722 -122.676986 359 15300ft 374kts
19-Sep-20 09:45 44.777104 -122.666076 358 11948ft 365kts
19-Sep-20 09:46 44.874833 -122.659207 358 10976ft 351kts
19-Sep-20 09:47 44.968829 -122.652354 358 10972ft 323kts
19-Sep-20 09:48 45.059493 -122.645372 358 10328ft 300kts
19-Sep-20 09:49 45.143806 -122.638973 358 9351ft 307kts
19-Sep-20 09:51 45.222856 -122.633164 358 8332ft 273kts
19-Sep-20 09:52 45.293205 -122.653850 337 7965ft 246kts
19-Sep-20 09:53 45.364200 -122.689300 337 7223ft 297kts
19-Sep-20 09:54 45.433633 -122.727369 333 6992ft 219kts
19-Sep-20 09:55 45.489584 -122.766385 330 5894ft 227kts
19-Sep-20 09:56 45.538502 -122.803898 330 4960ft 180kts
19-Sep-20 09:57 45.587080 -122.846393 316 4959ft 186kts
19-Sep-20 09:58 45.625255 -122.899976 314 4788ft 192kts
19-Sep-20 09:59 45.662050 -122.951977 324 3630ft 194kts
19-Sep-20 10:00 45.701185 -122.915521 58 2961ft 187kts
19-Sep-20 10:01 45.685785 -122.842756 116 2981ft 224kts
19-Sep-20 10:02 45.660820 -122.771536 117 2856ft 186kts
19-Sep-20 10:03 45.636954 -122.707565 118 1878ft 173kts
19-Sep-20 10:04 45.614228 -122.646859 117 927ft 170kts
19-Sep-20 10:05 45.593216 -122.591766 118 21ft 122kts
19-Sep-20 10:06 45.588933 -122.582049 194 21ft 0kts
19-Sep-20 10:07 45.585946 -122.581753 251 21ft 3kts

Navigation Log

Ident Type
Flight plan parsing failed, navigation log unavailable